createdAt,value
2022-08-30T00:00:26.610Z,14.43
2022-08-30T00:02:57.073Z,14.10
2022-08-30T00:05:26.731Z,15.15
2022-08-30T00:07:56.509Z,16.55
2022-08-30T00:10:28.941Z,17.50
2022-08-30T00:12:59.789Z,19.92
2022-08-30T00:15:30.763Z,12.55
2022-08-30T00:18:00.250Z,13.63
2022-08-30T00:20:32.995Z,15.43
2022-08-30T00:23:03.247Z,16.30
2022-08-30T00:25:34.552Z,15.75
2022-08-30T00:28:04.768Z,15.63
2022-08-30T00:30:34.516Z,14.68
2022-08-30T00:33:04.131Z,14.95
2022-08-30T00:35:33.978Z,14.93
2022-08-30T00:38:03.484Z,16.15
2022-08-30T00:40:34.779Z,15.25
2022-08-30T00:43:08.777Z,16.20
2022-08-30T00:45:43.777Z,17.00
2022-08-30T00:48:13.364Z,15.82
2022-08-30T00:52:26.218Z,21.05
2022-08-30T00:54:56.206Z,17.80
2022-08-30T00:57:25.544Z,16.73
2022-08-30T00:59:55.058Z,21.45
2022-08-30T01:02:26.094Z,18.77
2022-08-30T01:04:56.729Z,18.08
2022-08-30T01:07:27.503Z,21.58
2022-08-30T01:09:57.986Z,18.27
2022-08-30T01:12:27.669Z,17.27
2022-08-30T01:14:57.358Z,22.40
2022-08-30T01:17:29.362Z,18.63
2022-08-30T01:20:06.106Z,14.15
2022-08-30T01:22:45.888Z,19.70
2022-08-30T01:25:23.006Z,17.08
2022-08-30T01:27:59.110Z,16.25
2022-08-30T01:30:29.309Z,20.90
2022-08-30T01:33:02.543Z,19.05
2022-08-30T01:35:40.568Z,18.38
2022-08-30T01:38:10.645Z,18.15
2022-08-30T01:40:41.567Z,17.13
2022-08-30T01:43:11.681Z,14.70
2022-08-30T01:45:41.220Z,16.70
2022-08-30T01:48:13.070Z,16.38
2022-08-30T01:50:43.876Z,18.58
2022-08-30T01:53:13.497Z,17.23
2022-08-30T01:55:45.140Z,15.90
2022-08-30T01:58:15.885Z,17.60
2022-08-30T02:00:45.537Z,15.55
2022-08-30T02:03:15.041Z,15.40
2022-08-30T02:05:44.835Z,16.77
2022-08-30T02:08:14.175Z,17.23
2022-08-30T02:10:45.066Z,28.02
2022-08-30T02:13:14.602Z,18.42
2022-08-30T02:15:44.070Z,20.67
2022-08-30T02:18:13.548Z,19.77
2022-08-30T02:20:43.145Z,20.42
2022-08-30T02:23:12.627Z,17.23
2022-08-30T02:25:43.708Z,19.17
2022-08-30T02:28:14.974Z,18.45
2022-08-30T02:30:44.854Z,21.30
2022-08-30T02:33:14.598Z,19.50
2022-08-30T02:35:44.357Z,17.73
2022-08-30T02:38:14.753Z,21.23
2022-08-30T02:40:45.835Z,20.98
2022-08-30T02:43:15.528Z,18.88
2022-08-30T02:45:45.886Z,19.23
2022-08-30T02:48:15.877Z,18.67
2022-08-30T02:50:47.709Z,21.42
2022-08-30T02:53:17.752Z,21.95
2022-08-30T02:55:49.571Z,18.35
2022-08-30T02:58:19.205Z,21.23
2022-08-30T03:00:48.775Z,22.38
2022-08-30T03:03:22.147Z,19.33
2022-08-30T03:05:51.482Z,18.70
2022-08-30T03:08:20.891Z,18.67
2022-08-30T03:10:52.395Z,21.77
2022-08-30T03:13:21.888Z,20.10
2022-08-30T03:15:51.740Z,16.13
2022-08-30T03:18:21.980Z,18.20
2022-08-30T03:20:54.677Z,19.45
2022-08-30T03:23:25.521Z,20.25
2022-08-30T03:25:57.556Z,15.43
2022-08-30T03:28:27.082Z,17.15
2022-08-30T03:30:56.891Z,19.27
2022-08-30T03:33:26.553Z,18.17
2022-08-30T03:35:57.170Z,17.67
2022-08-30T03:38:26.666Z,23.02
2022-08-30T03:40:57.691Z,19.60
2022-08-30T03:43:27.828Z,20.92
2022-08-30T03:45:58.957Z,15.43
2022-08-30T03:48:28.633Z,17.20
2022-08-30T03:53:27.192Z,15.60
2022-08-30T03:55:57.271Z,18.00
2022-08-30T03:58:27.708Z,20.98
2022-08-30T04:00:57.196Z,19.73
2022-08-30T04:03:26.729Z,18.92
2022-08-30T04:05:56.784Z,17.30
2022-08-30T04:08:27.792Z,20.00
2022-08-30T04:10:57.486Z,18.95
2022-08-30T04:13:27.687Z,17.77
2022-08-30T04:15:57.369Z,16.90
2022-08-30T04:18:27.071Z,16.35
2022-08-30T04:20:56.688Z,18.75
2022-08-30T04:23:28.792Z,22.90
2022-08-30T04:25:58.509Z,16.60
2022-08-30T04:28:28.071Z,21.70
2022-08-30T04:30:57.434Z,17.10
2022-08-30T04:33:26.993Z,19.10
2022-08-30T04:35:56.531Z,15.05
2022-08-30T04:38:30.390Z,17.25
2022-08-30T04:41:00.156Z,16.45
2022-08-30T04:43:30.210Z,17.52
2022-08-30T04:45:59.796Z,17.20
2022-08-30T04:48:29.792Z,20.25
2022-08-30T04:50:59.318Z,17.90
2022-08-30T04:53:30.210Z,16.23
2022-08-30T04:55:59.869Z,16.10
2022-08-30T04:58:29.790Z,20.75
2022-08-30T05:00:59.087Z,15.07
2022-08-30T05:03:28.741Z,17.73
2022-08-30T05:05:58.449Z,17.52
2022-08-30T05:08:29.561Z,16.23
2022-08-30T05:10:58.916Z,18.48
2022-08-30T05:13:35.627Z,14.63
2022-08-30T05:16:09.460Z,23.50
2022-08-30T05:18:39.596Z,20.23
2022-08-30T05:21:13.510Z,21.52
2022-08-30T05:23:45.101Z,15.68
2022-08-30T05:26:18.934Z,16.67
2022-08-30T05:28:49.643Z,16.95
2022-08-30T05:31:23.659Z,16.25
2022-08-30T05:33:55.110Z,20.33
2022-08-30T05:36:27.043Z,14.83
2022-08-30T05:38:58.711Z,16.23
2022-08-30T05:41:29.491Z,16.52
2022-08-30T05:44:01.576Z,17.63
2022-08-30T05:49:10.868Z,14.88
2022-08-30T05:51:43.444Z,14.57
2022-08-30T05:54:16.037Z,17.38
2022-08-30T05:56:48.271Z,15.40
2022-08-30T05:59:18.317Z,16.00
2022-08-30T06:01:49.665Z,13.45
2022-08-30T06:04:20.038Z,17.60
2022-08-30T06:06:49.610Z,17.02
2022-08-30T06:09:20.866Z,13.63
2022-08-30T13:06:44.303Z,14.90
2022-08-30T13:09:28.571Z,11.40
2022-08-30T13:12:03.771Z,13.73
2022-08-30T13:14:42.316Z,14.27
2022-08-30T13:17:30.173Z,12.95
2022-08-30T13:20:06.972Z,12.25
2022-08-30T13:22:41.177Z,11.25
2022-08-30T13:25:13.449Z,12.25
2022-08-30T13:27:43.550Z,13.20
2022-08-30T13:30:17.735Z,18.15
2022-08-30T13:32:48.142Z,14.57
2022-08-30T13:35:18.278Z,12.07
2022-08-30T13:37:51.734Z,10.30
2022-08-30T13:40:23.409Z,11.60
2022-08-30T13:42:53.944Z,11.98
2022-08-30T13:48:17.380Z,12.73
2022-08-30T13:50:55.697Z,11.15
2022-08-30T13:56:17.189Z,10.53
2022-08-30T13:58:47.194Z,11.38
2022-08-30T14:01:17.510Z,12.82
2022-08-30T14:07:11.982Z,14.00
2022-08-30T14:09:29.335Z,13.80
2022-08-30T14:12:00.624Z,12.23
2022-08-30T14:14:42.633Z,13.15
2022-08-30T14:17:13.558Z,10.98
2022-08-30T14:19:43.533Z,11.10
2022-08-30T14:22:14.174Z,13.10
2022-08-30T14:24:45.556Z,10.23
2022-08-30T14:27:15.513Z,10.43
2022-08-30T14:29:47.914Z,10.20
2022-08-30T14:32:17.770Z,10.73
2022-08-30T14:34:48.354Z,14.68
2022-08-30T14:37:18.814Z,12.48
2022-08-30T14:39:51.314Z,11.23
2022-08-30T14:42:21.652Z,11.35
2022-08-30T14:44:56.559Z,12.32
2022-08-30T14:47:29.857Z,11.63
2022-08-30T14:50:02.153Z,11.35
2022-08-30T14:52:33.232Z,12.70
2022-08-30T14:55:09.008Z,13.90
2022-08-30T14:57:40.105Z,12.65
2022-08-30T15:00:14.769Z,13.07
2022-08-30T15:02:44.934Z,15.02
2022-08-30T15:05:14.991Z,15.07
2022-08-30T15:07:44.954Z,12.55
2022-08-30T15:10:17.354Z,11.50
2022-08-30T15:15:22.915Z,15.02
2022-08-30T15:17:53.238Z,12.98
2022-08-30T15:20:23.242Z,11.45
2022-08-30T15:22:53.228Z,15.38
2022-08-30T15:25:24.992Z,13.35
2022-08-30T15:30:25.600Z,13.82
2022-08-30T15:32:55.551Z,14.73
2022-08-30T15:35:25.470Z,11.07
2022-08-30T15:37:55.878Z,12.27
2022-08-30T15:40:28.617Z,17.52
2022-08-30T15:42:58.694Z,17.58
2022-08-30T15:45:28.549Z,15.38
2022-08-30T15:48:01.950Z,13.88
2022-08-30T15:53:24.635Z,13.63
2022-08-30T15:58:24.757Z,15.68
2022-08-30T16:00:54.863Z,13.20
2022-08-30T16:03:24.790Z,16.10
2022-08-30T16:05:54.640Z,14.15
2022-08-30T16:08:26.033Z,13.07
2022-08-30T16:10:55.872Z,14.63
2022-08-30T16:13:26.315Z,14.52
2022-08-30T16:15:56.226Z,13.70
2022-08-30T16:18:25.998Z,14.93
2022-08-30T16:21:06.115Z,15.75
2022-08-30T16:23:38.725Z,13.27
2022-08-30T16:26:09.510Z,13.32
2022-08-30T16:28:42.233Z,16.67
2022-08-30T16:31:13.926Z,17.77
2022-08-30T16:33:45.012Z,17.70
2022-08-30T16:36:15.755Z,12.17
2022-08-30T16:38:47.509Z,13.13
2022-08-30T16:41:21.661Z,13.88
2022-08-30T16:43:53.526Z,14.02
2022-08-30T16:46:27.917Z,14.10
2022-08-30T16:49:01.698Z,16.15
2022-08-30T16:51:34.616Z,19.38
2022-08-30T16:54:08.917Z,13.52
2022-08-30T16:56:39.796Z,13.15
2022-08-30T16:59:11.507Z,14.93
2022-08-30T17:01:43.794Z,12.75
2022-08-30T17:04:18.580Z,13.50
2022-08-30T17:06:51.275Z,14.40
2022-08-30T17:09:22.994Z,13.43
2022-08-30T17:11:53.261Z,15.52
2022-08-30T17:14:28.129Z,18.35
2022-08-30T17:17:00.862Z,18.80
2022-08-30T17:19:31.197Z,14.77
2022-08-30T17:22:02.055Z,16.42
2022-08-30T17:24:33.452Z,15.93
2022-08-30T17:27:03.430Z,18.65
2022-08-30T17:29:33.470Z,15.32
2022-08-30T17:32:03.890Z,14.35
2022-08-30T17:34:34.892Z,15.75
2022-08-30T17:37:05.217Z,17.73
2022-08-30T17:39:37.115Z,16.98
2022-08-30T17:42:07.618Z,19.15
2022-08-30T17:44:42.016Z,14.98
2022-08-30T17:47:13.274Z,19.40
2022-08-30T17:49:43.757Z,15.32
2022-08-30T17:52:14.349Z,18.20
2022-08-30T17:54:45.812Z,19.85
2022-08-30T17:57:15.794Z,18.92
2022-08-30T17:59:46.855Z,17.55
2022-08-30T18:02:25.212Z,18.08
2022-08-30T18:05:01.073Z,15.88
2022-08-30T18:07:30.950Z,15.10
2022-08-30T18:10:02.674Z,17.63
2022-08-30T18:12:33.875Z,20.67
2022-08-30T18:15:12.629Z,15.18
2022-08-30T18:17:48.165Z,15.18
2022-08-30T18:22:48.049Z,17.42
2022-08-30T18:25:20.118Z,15.07
2022-08-30T18:27:58.777Z,18.95
2022-08-30T18:33:20.261Z,16.42
2022-08-30T18:35:51.250Z,17.67
2022-08-30T18:38:23.553Z,15.27
2022-08-30T18:41:00.834Z,13.57
2022-08-30T18:43:31.292Z,18.48
2022-08-30T18:46:06.049Z,15.05
2022-08-30T18:48:37.174Z,17.40
2022-08-30T18:53:28.627Z,13.77
2022-08-30T18:56:00.082Z,18.38
2022-08-30T18:58:30.052Z,16.10
2022-08-30T19:00:59.933Z,14.40
2022-08-30T19:03:33.542Z,17.27
2022-08-30T19:06:06.370Z,16.45
2022-08-30T19:08:39.095Z,24.98
2022-08-30T19:11:10.353Z,19.70
2022-08-30T19:13:40.559Z,15.57
2022-08-30T19:16:12.059Z,19.92
2022-08-30T19:21:15.044Z,15.40
2022-08-30T19:23:50.717Z,14.57
2022-08-30T19:26:24.473Z,13.20
2022-08-30T19:28:57.534Z,14.77
2022-08-30T19:31:27.460Z,15.05
2022-08-30T19:33:57.869Z,13.88
2022-08-30T19:36:29.234Z,18.25
2022-08-30T19:39:00.643Z,18.43
2022-08-30T19:41:30.554Z,15.20
2022-08-30T19:44:03.281Z,17.10
2022-08-30T19:46:33.651Z,15.75
2022-08-30T19:49:07.457Z,15.05
2022-08-30T19:51:37.460Z,13.95
2022-08-30T19:54:09.211Z,19.80
2022-08-30T19:56:39.104Z,19.38
2022-08-30T19:59:09.015Z,16.35
2022-08-30T20:01:40.778Z,18.67
2022-08-30T20:04:12.882Z,14.05
2022-08-30T20:06:43.170Z,15.73
2022-08-30T20:09:15.274Z,13.95
2022-08-30T20:11:45.231Z,13.82
2022-08-30T20:14:19.471Z,16.42
2022-08-30T20:16:51.774Z,15.90
2022-08-30T20:19:22.321Z,15.48
2022-08-30T20:21:59.310Z,20.88
2022-08-30T20:24:27.929Z,19.13
2022-08-30T20:24:43.941Z,19.20
2022-08-30T20:27:14.496Z,15.98
2022-08-30T20:29:44.418Z,15.98
2022-08-30T20:32:14.255Z,13.55
2022-08-30T20:34:44.715Z,18.23
2022-08-30T20:37:15.417Z,19.45
2022-08-30T20:39:46.750Z,18.05
2022-08-30T20:42:16.610Z,15.07
2022-08-30T20:44:46.590Z,14.13
2022-08-30T20:47:17.730Z,16.20
2022-08-30T20:49:47.913Z,14.65
2022-08-30T20:52:18.475Z,16.20
2022-08-30T20:54:50.063Z,14.23
2022-08-30T20:57:24.700Z,12.57
2022-08-30T20:59:54.552Z,12.15
2022-08-30T21:02:25.495Z,15.15
2022-08-30T21:04:55.806Z,11.88
2022-08-30T21:07:26.674Z,9.90
2022-08-30T21:09:58.375Z,14.35
2022-08-30T21:12:28.612Z,12.20
2022-08-30T21:14:58.855Z,10.23
2022-08-30T21:17:30.574Z,10.65
2022-08-30T21:20:01.212Z,12.85
2022-08-30T21:22:31.163Z,10.02
2022-08-30T21:25:02.702Z,9.38
2022-08-30T21:27:32.648Z,13.85
2022-08-30T21:30:03.168Z,10.75
2022-08-30T21:32:33.196Z,13.35
2022-08-30T21:35:20.536Z,11.52
2022-08-30T21:37:50.684Z,11.48
2022-08-30T21:40:22.763Z,14.95
2022-08-30T21:45:22.276Z,11.82
2022-08-30T21:47:52.073Z,11.55
2022-08-30T21:53:24.131Z,12.43
2022-08-30T21:55:53.991Z,10.67
2022-08-30T21:58:25.281Z,10.03
2022-08-30T22:00:55.996Z,10.13
2022-08-30T22:03:26.002Z,10.68
2022-08-30T22:05:56.073Z,11.90
2022-08-30T22:08:27.444Z,11.65
2022-08-30T22:10:57.268Z,10.83
2022-08-30T22:13:27.436Z,11.55
2022-08-30T22:15:58.155Z,10.85
2022-08-30T22:18:28.321Z,13.60
2022-08-30T22:20:58.531Z,11.43
2022-08-30T22:23:29.836Z,11.70
2022-08-30T22:26:01.091Z,12.70
2022-08-30T22:28:31.416Z,14.17
2022-08-30T22:31:03.452Z,15.05
2022-08-30T22:33:33.923Z,14.23
2022-08-30T22:36:09.709Z,14.65
2022-08-30T22:38:42.291Z,17.85
2022-08-30T22:41:14.152Z,17.02
2022-08-30T22:43:44.236Z,10.15
2022-08-30T22:46:15.270Z,14.27
2022-08-30T22:48:47.259Z,12.52
2022-08-30T22:51:18.474Z,14.38
2022-08-30T22:53:50.475Z,10.18
2022-08-30T22:56:23.295Z,13.82
2022-08-30T22:58:53.620Z,13.82
2022-08-30T23:01:27.349Z,12.77
2022-08-30T23:03:58.071Z,12.23
2022-08-30T23:06:28.609Z,13.30
2022-08-30T23:09:00.505Z,13.63
2022-08-30T23:11:33.391Z,13.48
2022-08-30T23:14:03.932Z,13.00
2022-08-30T23:16:34.346Z,11.32
2022-08-30T23:19:04.483Z,17.45
2022-08-30T23:21:34.571Z,12.80
2022-08-30T23:24:24.278Z,15.85
2022-08-30T23:27:11.267Z,15.10
2022-08-30T23:30:00.431Z,13.45
2022-08-30T23:32:47.302Z,19.52
2022-08-30T23:35:34.190Z,16.20
2022-08-30T23:38:25.072Z,13.05
2022-08-30T23:41:13.692Z,15.90
2022-08-30T23:44:00.872Z,15.13
2022-08-30T23:46:47.614Z,14.65
2022-08-30T23:49:34.719Z,17.98
2022-08-30T23:52:22.256Z,14.73
2022-08-30T23:55:09.135Z,14.18
2022-08-30T23:57:57.794Z,16.73
